Time;durP1;ratioP1;P1;durP2;ratioP2;P2;SDS_P1;SDS_P2;PMS_P1;PMS_P2;Temp;Humidity;BMP_temperature;BMP_pressure;BME280_temperature;BME280_humidity;BME280_pressure;Samples;Min_cycle;Max_cycle;Signal;HPM_P1;HPM_P2
2022/07/25 00:08:01;;;;;;;17.20;10.50;;;;;;;15.58;60.06;98878.02;434157;1266;97898;-45
2022/07/25 00:18:08;;;;;;;16.00;10.50;;;;;;;15.37;60.60;98875.45;433960;1266;108657;-44
2022/07/25 00:28:11;;;;;;;16.10;9.90;;;;;;;15.29;60.96;98881.61;433964;1268;97890;-43
2022/07/25 00:38:15;;;;;;;16.40;8.50;;;;;;;15.16;61.23;98879.31;434303;1266;97203;-45
2022/07/25 00:48:19;;;;;;;12.30;8.30;;;;;;;15.06;61.72;98879.13;434097;1266;108830;-43
2022/07/25 00:58:22;;;;;;;13.50;8.50;;;;;;;14.87;61.97;98880.58;434097;1268;98018;-43
2022/07/25 01:08:31;;;;;;;12.50;8.70;;;;;;;14.69;62.36;98869.89;434911;1258;110600;-44
2022/07/25 01:18:35;;;;;;;14.50;9.40;;;;;;;14.52;62.64;98861.10;433874;1266;107588;-45
2022/07/25 01:28:40;;;;;;;14.00;8.80;;;;;;;14.29;62.78;98853.86;433797;1267;97946;-43
2022/07/25 01:38:44;;;;;;;13.40;9.10;;;;;;;14.18;63.26;98846.41;433512;1267;111313;-42
2022/07/25 01:48:47;;;;;;;15.00;8.00;;;;;;;14.28;63.93;98849.75;433565;1267;108674;-46
2022/07/25 01:58:51;;;;;;;16.70;8.80;;;;;;;14.23;63.92;98845.31;433665;1267;97939;-43
2022/07/25 02:08:55;;;;;;;12.30;8.30;;;;;;;14.21;64.29;98838.02;433659;1267;108963;-43
2022/07/25 02:18:58;;;;;;;15.10;8.20;;;;;;;14.30;64.56;98833.59;433596;1267;97053;-43
2022/07/25 02:29:02;;;;;;;16.10;9.60;;;;;;;14.34;65.06;98828.21;433632;1267;111643;-44
2022/07/25 02:39:06;;;;;;;13.10;10.20;;;;;;;14.45;65.28;98830.29;433899;1266;97894;-46
2022/07/25 02:49:09;;;;;;;12.00;8.90;;;;;;;14.45;65.24;98829.21;433631;1267;97949;-43
2022/07/25 02:59:13;;;;;;;12.20;8.10;;;;;;;14.45;65.42;98831.46;433659;1267;110042;-44
2022/07/25 03:09:17;;;;;;;15.40;9.20;;;;;;;14.52;65.39;98828.55;433811;1267;108868;-47
2022/07/25 03:19:21;;;;;;;17.10;8.70;;;;;;;14.47;65.57;98819.78;433664;1267;97937;-43
2022/07/25 03:29:25;;;;;;;13.50;10.10;;;;;;;14.41;65.68;98812.61;433835;1267;109000;-44
2022/07/25 03:39:29;;;;;;;12.40;8.50;;;;;;;14.32;65.80;98809.79;433837;1267;98006;-43
2022/07/25 03:49:34;;;;;;;18.80;9.20;;;;;;;15.16;65.71;98805.42;433625;1267;111019;-43
2022/07/25 03:59:38;;;;;;;15.10;8.70;;;;;;;17.59;64.31;98804.03;433656;1267;108768;-45
2022/07/25 04:09:42;;;;;;;10.10;7.50;;;;;;;19.80;62.20;98806.15;433727;1267;96676;-44
2022/07/25 04:19:45;;;;;;;8.30;5.80;;;;;;;21.58;59.89;98813.98;433569;1267;110876;-44
2022/07/25 04:29:49;;;;;;;13.40;5.10;;;;;;;22.95;57.86;98811.45;433757;1267;97992;-43
2022/07/25 04:39:53;;;;;;;9.70;4.50;;;;;;;23.47;55.40;98803.80;433766;1268;111237;-43
2022/07/25 04:49:56;;;;;;;8.10;4.10;;;;;;;23.81;54.25;98798.60;433856;1267;108637;-44
2022/07/25 05:00:00;;;;;;;5.80;4.40;;;;;;;24.22;52.87;98794.23;433576;1265;97926;-43
2022/07/25 05:10:03;;;;;;;8.20;4.60;;;;;;;24.38;51.56;98791.44;433775;1268;99449;-42
2022/07/25 05:20:09;;;;;;;6.60;4.20;;;;;;;24.77;50.87;98781.85;433880;1268;108601;-45
2022/07/25 05:30:12;;;;;;;9.60;4.80;;;;;;;25.02;49.98;98775.23;433828;1268;97916;-43
2022/07/25 05:40:18;;;;;;;10.00;4.90;;;;;;;24.24;48.89;98758.37;433785;1267;97928;-44
2022/07/25 05:50:24;;;;;;;10.90;3.90;;;;;;;24.49;49.44;98753.36;433619;1268;109032;-44
2022/07/25 06:00:28;;;;;;;8.60;4.00;;;;;;;25.21;48.71;98749.06;433662;1268;97927;-43
2022/07/25 06:10:32;;;;;;;6.50;3.70;;;;;;;25.37;47.09;98742.64;433246;1267;291768;-44
2022/07/25 06:20:36;;;;;;;5.00;3.20;;;;;;;26.01;47.44;98744.90;432627;1270;108819;-45
2022/07/25 06:55:39;;;;;;;8.40;3.80;;;;;;;27.24;42.99;98716.85;419169;1309;648864;-43
2022/07/25 07:05:46;;;;;;;30.80;3.20;;;;;;;27.78;42.43;98705.84;430603;1280;95657;-46
2022/07/25 07:25:59;;;;;;;6.70;2.50;;;;;;;27.99;41.21;98707.73;430497;1280;108855;-45
2022/07/25 07:36:04;;;;;;;5.50;1.70;;;;;;;28.10;40.34;98698.19;430590;1280;108804;-43
2022/07/25 07:46:11;;;;;;;4.60;1.90;;;;;;;28.59;40.35;98696.20;430517;1279;95802;-44
2022/07/25 07:56:17;;;;;;;5.40;1.90;;;;;;;28.64;39.08;98689.19;430487;1280;94573;-47
2022/07/25 08:06:26;;;;;;;2.20;1.50;;;;;;;28.70;38.77;98691.08;430379;1278;108381;-46
2022/07/25 08:16:34;;;;;;;3.40;1.80;;;;;;;28.18;37.17;98689.60;430486;1280;107474;-47
2022/07/25 08:26:41;;;;;;;4.50;2.00;;;;;;;28.02;36.89;98683.45;430453;1279;108824;-44
2022/07/25 08:36:49;;;;;;;4.50;2.00;;;;;;;28.07;36.69;98674.45;430412;1280;95477;-47
2022/07/25 08:46:56;;;;;;;2.20;1.70;;;;;;;27.64;35.59;98673.74;430300;1279;109698;-49
2022/07/25 08:57:03;;;;;;;2.50;2.20;;;;;;;27.61;35.85;98667.35;430616;1279;107785;-47
2022/07/25 09:07:09;;;;;;;3.90;2.20;;;;;;;28.17;36.09;98656.54;430279;1280;108936;-45
2022/07/25 09:17:16;;;;;;;4.70;2.00;;;;;;;28.80;35.67;98654.71;430457;1280;95732;-43
2022/07/25 09:27:34;;;;;;;3.80;1.70;;;;;;;28.41;35.04;98645.98;430446;1278;109557;-45
2022/07/25 09:37:41;;;;;;;1.90;1.60;;;;;;;28.70;35.46;98629.34;430502;1278;108868;-43
2022/07/25 09:47:52;;;;;;;3.00;1.60;;;;;;;28.74;34.84;98629.83;430366;1279;108793;-43
2022/07/25 09:58:00;;;;;;;6.10;2.90;;;;;;;28.85;34.80;98619.31;430483;1280;95539;-48
2022/07/25 10:08:07;;;;;;;3.90;1.90;;;;;;;28.82;34.91;98614.75;432560;1271;109757;-45
2022/07/25 10:18:17;;;;;;;2.10;1.90;;;;;;;29.17;34.62;98608.91;432560;1271;109096;-45
2022/07/25 10:28:34;;;;;;;10.20;2.30;;;;;;;28.82;33.91;98596.91;432633;1272;107957;-44
2022/07/25 10:38:44;;;;;;;1.90;1.60;;;;;;;29.01;34.17;98589.95;431946;1273;95523;-43
2022/07/25 10:48:57;;;;;;;3.30;1.90;;;;;;;29.21;33.11;98580.39;432426;1272;109644;-50
2022/07/25 10:59:05;;;;;;;1.80;1.40;;;;;;;28.86;32.63;98576.02;432491;1272;108962;-43
2022/07/25 11:09:16;;;;;;;1.50;1.10;;;;;;;28.54;31.63;98560.46;432441;1272;107795;-44
2022/07/25 11:19:29;;;;;;;1.60;1.20;;;;;;;28.66;31.55;98540.79;432618;1272;96165;-48
2022/07/25 11:40:15;;;;;;;4.00;1.50;;;;;;;29.19;31.43;98514.75;434221;1267;108634;-44
2022/07/25 11:50:29;;;;;;;1.90;1.20;;;;;;;29.60;31.08;98494.24;433859;1260;108893;-42
2022/07/25 12:00:34;;;;;;;5.00;1.50;;;;;;;29.39;30.50;98492.85;432569;1271;96179;-42
2022/07/25 12:20:49;;;;;;;2.50;1.80;;;;;;;29.44;31.12;98468.85;430864;1275;109806;-42
2022/07/25 12:30:57;;;;;;;1.80;1.40;;;;;;;29.62;31.32;98450.85;430747;1276;108870;-43
2022/07/25 12:41:04;;;;;;;2.90;2.40;;;;;;;29.93;31.01;98433.29;430941;1276;108892;-42
2022/07/25 12:51:11;;;;;;;3.90;1.60;;;;;;;30.03;30.85;98422.80;430729;1276;96190;-42
2022/07/25 13:01:18;;;;;;;3.10;1.40;;;;;;;29.91;30.62;98411.21;430818;1275;97651;-43
2022/07/25 13:11:26;;;;;;;2.00;1.50;;;;;;;29.67;30.32;98400.66;430972;1276;109919;-41
2022/07/25 13:21:33;;;;;;;5.30;2.00;;;;;;;29.48;30.02;98390.55;431122;1276;108895;-42
2022/07/25 13:31:38;;;;;;;3.30;1.20;;;;;;;29.64;30.43;98366.58;431518;1276;108862;-41
2022/07/25 13:41:45;;;;;;;2.50;1.60;;;;;;;29.88;30.09;98360.53;431209;1276;95345;-42
2022/07/25 13:51:53;;;;;;;2.50;1.70;;;;;;;29.66;29.68;98346.70;431265;1276;96177;-41
2022/07/25 14:02:00;;;;;;;3.70;1.40;;;;;;;29.63;29.63;98328.19;430644;1276;109418;-42
2022/07/25 14:12:08;;;;;;;1.90;1.60;;;;;;;29.85;29.93;98317.02;431004;1275;108503;-41
2022/07/25 14:22:16;;;;;;;2.30;2.10;;;;;;;29.83;29.58;98313.35;431096;1276;108411;-42
2022/07/25 14:32:23;;;;;;;4.30;1.60;;;;;;;29.78;29.64;98301.66;430859;1276;96168;-42
2022/07/25 14:42:31;;;;;;;8.40;2.00;;;;;;;29.76;29.66;98291.25;430521;1275;96213;-41
2022/07/25 14:52:39;;;;;;;4.00;1.60;;;;;;;29.80;29.65;98282.61;430607;1274;109670;-41
2022/07/25 15:02:45;;;;;;;2.50;2.30;;;;;;;29.75;29.50;98273.34;430891;1276;107984;-41
2022/07/25 15:12:52;;;;;;;3.50;2.10;;;;;;;29.64;29.32;98258.91;430825;1276;108901;-42
2022/07/25 15:33:27;;;;;;;3.00;2.30;;;;;;;29.52;29.42;98228.05;430521;1275;96175;-41
2022/07/25 15:43:34;;;;;;;5.50;2.30;;;;;;;29.49;29.12;98217.66;430850;1276;109744;-40
2022/07/25 15:53:41;;;;;;;3.90;2.00;;;;;;;29.39;29.37;98203.84;430859;1276;108866;-40
2022/07/25 16:03:49;;;;;;;6.20;2.40;;;;;;;29.34;29.61;98204.48;430926;1276;108926;-41
2022/07/25 16:13:56;;;;;;;7.10;2.30;;;;;;;29.23;29.76;98201.80;430823;1275;95419;-41
2022/07/25 16:24:03;;;;;;;5.30;2.10;;;;;;;29.14;29.93;98194.95;430799;1275;96558;-41
2022/07/25 16:34:10;;;;;;;2.40;1.90;;;;;;;29.14;30.21;98188.71;430668;1276;109745;-40
2022/07/25 16:44:18;;;;;;;3.70;2.00;;;;;;;29.00;30.32;98178.84;431048;1276;109035;-41
2022/07/25 16:54:24;;;;;;;6.70;2.30;;;;;;;28.81;30.53;98171.55;431169;1275;108810;-42
2022/07/25 17:04:32;;;;;;;7.90;2.50;;;;;;;28.56;30.63;98164.14;431260;1276;96225;-40
2022/07/25 17:14:40;;;;;;;4.90;2.20;;;;;;;28.37;30.77;98157.95;431176;1276;97126;-42
2022/07/25 17:24:47;;;;;;;7.40;2.00;;;;;;;28.25;30.98;98155.45;431149;1276;109756;-41
2022/07/25 17:45:00;;;;;;;3.00;1.80;;;;;;;27.92;31.37;98151.08;430944;1275;107309;-40
2022/07/25 17:55:05;;;;;;;10.20;2.20;;;;;;;27.71;31.50;98143.41;430774;1276;96309;-40
2022/07/25 18:05:13;;;;;;;4.60;2.50;;;;;;;27.40;31.90;98135.14;430615;1276;96575;-40
2022/07/25 18:15:21;;;;;;;2.80;2.00;;;;;;;26.98;32.42;98129.14;431155;1276;109778;-40
2022/07/25 18:25:28;;;;;;;2.10;1.90;;;;;;;26.57;32.71;98117.30;430751;1276;108766;-41
2022/07/25 18:35:36;;;;;;;5.10;2.10;;;;;;;26.05;33.46;98099.89;430599;1275;107397;-40
2022/07/25 18:45:45;;;;;;;2.90;2.10;;;;;;;25.45;34.30;98087.35;431076;1276;96308;-40
2022/07/25 18:55:52;;;;;;;4.10;2.60;;;;;;;24.84;35.27;98083.98;430248;1275;817236;-40
2022/07/25 19:05:59;;;;;;;7.30;3.40;;;;;;;24.28;36.57;98081.45;431058;1275;109629;-40
2022/07/25 19:16:10;;;;;;;8.90;3.50;;;;;;;23.82;37.78;98074.78;430525;1276;109580;-40
2022/07/25 19:26:18;;;;;;;9.30;3.60;;;;;;;23.49;38.85;98072.29;431643;1276;109008;-40
2022/07/25 19:36:25;;;;;;;5.80;3.10;;;;;;;23.32;39.62;98065.91;430633;1276;96355;-41
2022/07/25 19:56:38;;;;;;;5.80;3.00;;;;;;;23.83;38.53;98060.31;430976;1274;108797;-40
2022/07/25 20:06:46;;;;;;;5.90;2.50;;;;;;;23.88;37.99;98062.88;431296;1276;108948;-40
2022/07/25 20:16:52;;;;;;;9.60;3.00;;;;;;;23.81;37.72;98072.09;430602;1276;107552;-39
2022/07/25 20:26:58;;;;;;;3.60;3.00;;;;;;;23.67;37.86;98068.42;430676;1276;96143;-40
2022/07/25 20:37:05;;;;;;;2.40;2.20;;;;;;;23.45;38.09;98070.31;431064;1276;96140;-45
2022/07/25 20:57:21;;;;;;;9.00;3.60;;;;;;;22.93;38.82;98077.94;430875;1276;109029;-40
2022/07/25 21:07:28;;;;;;;4.90;2.80;;;;;;;22.74;39.42;98079.83;430947;1275;108548;-41
2022/07/25 21:17:34;;;;;;;3.40;2.50;;;;;;;22.59;39.74;98072.35;430843;1276;96202;-41
2022/07/25 21:27:41;;;;;;;6.00;3.30;;;;;;;22.49;40.18;98070.16;430982;1276;96030;-39
2022/07/25 21:37:48;;;;;;;3.20;2.50;;;;;;;22.34;40.63;98064.90;430799;1275;109866;-40
2022/07/25 21:47:56;;;;;;;5.10;3.50;;;;;;;22.14;41.15;98050.27;430688;1276;108961;-40
2022/07/25 21:58:08;;;;;;;5.20;3.10;;;;;;;21.97;41.49;98045.58;430994;1276;109017;-40
2022/07/25 22:08:16;;;;;;;5.70;3.10;;;;;;;21.81;41.94;98040.03;430840;1276;96309;-40
2022/07/25 22:18:22;;;;;;;4.00;3.30;;;;;;;21.59;42.44;98023.82;430764;1276;96028;-39
2022/07/25 22:28:29;;;;;;;8.30;4.30;;;;;;;21.40;42.86;98012.98;431032;1275;108139;-40
2022/07/25 22:38:37;;;;;;;6.60;3.60;;;;;;;21.18;43.44;98006.05;430561;1276;108876;-40
2022/07/25 22:48:44;;;;;;;13.40;4.50;;;;;;;20.96;43.94;97991.23;430807;1276;108816;-42
2022/07/25 22:58:51;;;;;;;7.10;4.50;;;;;;;20.85;44.33;97982.36;430842;1276;96168;-39
2022/07/25 23:08:59;;;;;;;4.20;3.80;;;;;;;20.62;44.85;97963.89;431260;1276;95538;-41
2022/07/25 23:19:07;;;;;;;6.10;4.20;;;;;;;20.46;45.57;97937.42;430703;1275;109873;-40
2022/07/25 23:29:14;;;;;;;5.10;3.80;;;;;;;20.40;45.96;97934.14;430671;1276;108747;-39
2022/07/25 23:39:22;;;;;;;7.40;3.80;;;;;;;20.15;46.53;97931.33;430909;1276;108889;-40
2022/07/25 23:49:29;;;;;;;5.00;3.90;;;;;;;19.88;47.27;97924.94;431080;1276;97490;-41
2022/07/25 23:59:36;;;;;;;5.00;3.70;;;;;;;19.69;47.98;97921.05;430866;1276;98238;-39
